sensor_id;sensor_type;location;lat;lon;timestamp;P1;P2;P0
46591;PMS6003;32314;48.748;9.656;2023-07-16T08:49:53;1.25;1.00;1.00
46591;PMS6003;32314;48.748;9.656;2023-07-16T08:57:04;2.00;2.00;2.00
46591;PMS6003;32314;48.748;9.656;2023-07-16T09:00:28;2.50;1.50;1.00
46591;PMS6003;32314;48.748;9.656;2023-07-16T09:12:50;1.50;1.25;1.00
46591;PMS6003;32314;48.748;9.656;2023-07-16T09:45:26;2.00;2.00;2.00
46591;PMS6003;32314;48.748;9.656;2023-07-16T09:48:15;2.00;2.00;2.00
46591;PMS6003;32314;48.748;9.656;2023-07-16T09:51:02;2.00;1.00;1.00
46591;PMS6003;32314;48.748;9.656;2023-07-16T09:53:50;3.00;3.00;3.00
46591;PMS6003;32314;48.748;9.656;2023-07-16T09:56:44;2.00;2.00;2.00
46591;PMS6003;32314;48.748;9.656;2023-07-16T09:59:35;2.75;2.75;2.75
46591;PMS6003;32314;48.748;9.656;2023-07-16T10:02:24;1.25;1.25;1.00
46591;PMS6003;32314;48.748;9.656;2023-07-16T10:08:03;0.67;0.67;0.67
46591;PMS6003;32314;48.748;9.656;2023-07-16T10:10:53;1.00;1.00;1.00
46591;PMS6003;32314;48.748;9.656;2023-07-16T10:13:41;2.00;2.00;1.67
46591;PMS6003;32314;48.748;9.656;2023-07-16T10:16:35;1.33;1.33;1.33
46591;PMS6003;32314;48.748;9.656;2023-07-16T10:19:23;1.33;1.33;1.33
46591;PMS6003;32314;48.748;9.656;2023-07-16T10:22:09;1.00;1.00;1.00
46591;PMS6003;32314;48.748;9.656;2023-07-16T10:24:55;1.33;1.33;1.33
46591;PMS6003;32314;48.748;9.656;2023-07-16T10:27:40;1.00;1.00;1.00
46591;PMS6003;32314;48.748;9.656;2023-07-16T10:30:26;1.33;1.33;0.67
46591;PMS6003;32314;48.748;9.656;2023-07-16T10:33:12;1.00;1.00;1.00
46591;PMS6003;32314;48.748;9.656;2023-07-16T10:35:59;1.67;1.67;1.67
46591;PMS6003;32314;48.748;9.656;2023-07-16T10:38:45;1.33;1.33;0.67
46591;PMS6003;32314;48.748;9.656;2023-07-16T10:41:33;0.33;0.33;0.33
46591;PMS6003;32314;48.748;9.656;2023-07-16T10:44:20;2.00;2.00;1.67
46591;PMS6003;32314;48.748;9.656;2023-07-16T10:47:06;3.33;1.67;1.33
46591;PMS6003;32314;48.748;9.656;2023-07-16T10:49:52;0.67;0.67;0.67
46591;PMS6003;32314;48.748;9.656;2023-07-16T10:52:37;1.67;1.67;1.33
46591;PMS6003;32314;48.748;9.656;2023-07-16T10:55:25;1.33;1.00;1.00
46591;PMS6003;32314;48.748;9.656;2023-07-16T10:58:12;1.33;1.33;1.33
46591;PMS6003;32314;48.748;9.656;2023-07-16T11:00:57;2.00;2.00;1.00
46591;PMS6003;32314;48.748;9.656;2023-07-16T11:03:44;0.67;0.67;0.67
46591;PMS6003;32314;48.748;9.656;2023-07-16T11:06:30;1.67;1.67;1.00
46591;PMS6003;32314;48.748;9.656;2023-07-16T11:09:17;1.00;1.00;1.00
46591;PMS6003;32314;48.748;9.656;2023-07-16T11:12:06;2.33;1.00;0.67
46591;PMS6003;32314;48.748;9.656;2023-07-16T11:14:53;2.00;2.00;2.00
46591;PMS6003;32314;48.748;9.656;2023-07-16T11:17:40;3.00;1.33;1.00
46591;PMS6003;32314;48.748;9.656;2023-07-16T11:20:25;2.00;2.00;1.00
46591;PMS6003;32314;48.748;9.656;2023-07-16T11:23:11;1.33;0.00;0.00
46591;PMS6003;32314;48.748;9.656;2023-07-16T11:26:01;1.00;1.00;0.00
46591;PMS6003;32314;48.748;9.656;2023-07-16T11:28:50;1.00;1.00;0.75
46591;PMS6003;32314;48.748;9.656;2023-07-16T11:31:38;0.00;0.00;0.00
46591;PMS6003;32314;48.748;9.656;2023-07-16T11:34:25;0.50;0.50;0.50
46591;PMS6003;32314;48.748;9.656;2023-07-16T11:37:11;0.50;0.50;0.50
46591;PMS6003;32314;48.748;9.656;2023-07-16T11:40:02;1.50;1.50;0.50
46591;PMS6003;32314;48.748;9.656;2023-07-16T11:42:49;0.00;0.00;0.00
46591;PMS6003;32314;48.748;9.656;2023-07-16T11:45:35;2.50;1.00;0.75
46591;PMS6003;32314;48.748;9.656;2023-07-16T11:48:22;1.00;1.00;0.25
46591;PMS6003;32314;48.748;9.656;2023-07-16T11:51:08;1.00;1.00;1.00
46591;PMS6003;32314;48.748;9.656;2023-07-16T11:53:55;0.00;0.00;0.00
46591;PMS6003;32314;48.748;9.656;2023-07-16T11:56:45;0.75;0.75;0.75
46591;PMS6003;32314;48.748;9.656;2023-07-16T11:59:32;0.00;0.00;0.00
46591;PMS6003;32314;48.748;9.656;2023-07-16T12:02:19;1.00;1.00;1.00
46591;PMS6003;32314;48.748;9.656;2023-07-16T12:05:06;1.00;1.00;0.00
46591;PMS6003;32314;48.748;9.656;2023-07-16T12:07:54;0.75;0.00;0.00
46591;PMS6003;32314;48.748;9.656;2023-07-16T12:10:40;2.50;1.00;1.00
46591;PMS6003;32314;48.748;9.656;2023-07-16T12:13:26;0.00;0.00;0.00
46591;PMS6003;32314;48.748;9.656;2023-07-16T12:16:12;1.25;1.25;0.75
46591;PMS6003;32314;48.748;9.656;2023-07-16T12:18:58;0.50;0.50;0.00
46591;PMS6003;32314;48.748;9.656;2023-07-16T12:21:44;0.50;0.00;0.00
46591;PMS6003;32314;48.748;9.656;2023-07-16T12:24:30;0.50;0.50;0.00
46591;PMS6003;32314;48.748;9.656;2023-07-16T12:27:16;0.00;0.00;0.00
46591;PMS6003;32314;48.748;9.656;2023-07-16T12:30:03;0.25;0.25;0.25
46591;PMS6003;32314;48.748;9.656;2023-07-16T12:32:49;1.00;1.00;1.00
46591;PMS6003;32314;48.748;9.656;2023-07-16T12:35:35;2.00;0.75;0.50
46591;PMS6003;32314;48.748;9.656;2023-07-16T12:38:21;1.00;1.00;0.75
46591;PMS6003;32314;48.748;9.656;2023-07-16T12:41:08;1.00;1.00;1.00
46591;PMS6003;32314;48.748;9.656;2023-07-16T12:43:54;0.00;0.00;0.00
46591;PMS6003;32314;48.748;9.656;2023-07-16T12:46:39;1.00;1.00;1.00
46591;PMS6003;32314;48.748;9.656;2023-07-16T12:49:25;0.75;0.75;0.25
46591;PMS6003;32314;48.748;9.656;2023-07-16T12:52:11;1.00;1.00;1.00
46591;PMS6003;32314;48.748;9.656;2023-07-16T12:54:57;1.00;1.00;1.00
46591;PMS6003;32314;48.748;9.656;2023-07-16T12:57:43;0.75;0.75;0.00
46591;PMS6003;32314;48.748;9.656;2023-07-16T13:00:29;1.00;1.00;1.00
46591;PMS6003;32314;48.748;9.656;2023-07-16T13:03:15;1.00;1.00;1.00
46591;PMS6003;32314;48.748;9.656;2023-07-16T13:06:02;1.00;1.00;1.00
46591;PMS6003;32314;48.748;9.656;2023-07-16T13:08:49;0.75;0.75;0.50
46591;PMS6003;32314;48.748;9.656;2023-07-16T13:11:35;1.00;1.00;1.00
46591;PMS6003;32314;48.748;9.656;2023-07-16T13:14:22;3.75;1.25;1.00
46591;PMS6003;32314;48.748;9.656;2023-07-16T13:17:11;1.00;1.00;1.00
46591;PMS6003;32314;48.748;9.656;2023-07-16T13:19:57;0.00;0.00;0.00
46591;PMS6003;32314;48.748;9.656;2023-07-16T13:22:44;0.50;0.50;0.25
46591;PMS6003;32314;48.748;9.656;2023-07-16T13:25:33;0.25;0.25;0.25
46591;PMS6003;32314;48.748;9.656;2023-07-16T13:28:20;0.00;0.00;0.00
46591;PMS6003;32314;48.748;9.656;2023-07-16T13:31:06;1.00;1.00;1.00
46591;PMS6003;32314;48.748;9.656;2023-07-16T13:33:52;0.50;0.50;0.00
46591;PMS6003;32314;48.748;9.656;2023-07-16T13:36:38;1.25;1.25;1.00
46591;PMS6003;32314;48.748;9.656;2023-07-16T13:39:24;0.75;0.75;0.50
46591;PMS6003;32314;48.748;9.656;2023-07-16T13:42:10;0.00;0.00;0.00
46591;PMS6003;32314;48.748;9.656;2023-07-16T13:44:56;0.75;0.75;0.75
46591;PMS6003;32314;48.748;9.656;2023-07-16T13:47:42;1.00;1.00;0.25
46591;PMS6003;32314;48.748;9.656;2023-07-16T13:50:28;0.75;0.75;0.75
46591;PMS6003;32314;48.748;9.656;2023-07-16T13:53:14;1.00;1.00;0.00
46591;PMS6003;32314;48.748;9.656;2023-07-16T13:56:00;1.00;1.00;1.00
46591;PMS6003;32314;48.748;9.656;2023-07-16T13:58:46;1.75;1.00;0.25
46591;PMS6003;32314;48.748;9.656;2023-07-16T14:01:37;0.50;0.50;0.50
46591;PMS6003;32314;48.748;9.656;2023-07-16T14:04:27;2.00;2.00;1.00
46591;PMS6003;32314;48.748;9.656;2023-07-16T14:07:13;1.75;1.75;1.00
46591;PMS6003;32314;48.748;9.656;2023-07-16T14:09:59;2.00;2.00;2.00
46591;PMS6003;32314;48.748;9.656;2023-07-16T14:12:45;1.25;1.25;1.00
46591;PMS6003;32314;48.748;9.656;2023-07-16T14:15:31;1.00;1.00;1.00
46591;PMS6003;32314;48.748;9.656;2023-07-16T14:18:17;2.00;1.00;0.50
46591;PMS6003;32314;48.748;9.656;2023-07-16T14:21:03;2.75;1.00;0.75
46591;PMS6003;32314;48.748;9.656;2023-07-16T14:23:49;2.75;1.25;1.00
46591;PMS6003;32314;48.748;9.656;2023-07-16T14:26:35;1.00;1.00;1.00
46591;PMS6003;32314;48.748;9.656;2023-07-16T14:29:21;1.50;1.50;1.00
46591;PMS6003;32314;48.748;9.656;2023-07-16T14:32:07;1.00;1.00;1.00
46591;PMS6003;32314;48.748;9.656;2023-07-16T14:34:53;1.00;1.00;0.50
46591;PMS6003;32314;48.748;9.656;2023-07-16T14:37:38;1.50;1.50;1.50
46591;PMS6003;32314;48.748;9.656;2023-07-16T14:40:24;1.00;1.00;0.75
46591;PMS6003;32314;48.748;9.656;2023-07-16T14:43:11;1.00;1.00;1.00
46591;PMS6003;32314;48.748;9.656;2023-07-16T14:45:57;2.50;1.00;1.00
46591;PMS6003;32314;48.748;9.656;2023-07-16T14:48:43;1.00;1.00;1.00
46591;PMS6003;32314;48.748;9.656;2023-07-16T14:51:29;1.50;1.50;1.25
46591;PMS6003;32314;48.748;9.656;2023-07-16T14:54:15;0.75;0.75;0.75
46591;PMS6003;32314;48.748;9.656;2023-07-16T14:57:01;3.00;1.75;1.00
46591;PMS6003;32314;48.748;9.656;2023-07-16T14:59:49;2.25;1.00;1.00
46591;PMS6003;32314;48.748;9.656;2023-07-16T15:02:34;2.00;2.00;1.25
46591;PMS6003;32314;48.748;9.656;2023-07-16T15:08:10;1.25;1.25;0.75
46591;PMS6003;32314;48.748;9.656;2023-07-16T15:10:57;0.25;0.25;0.25
46591;PMS6003;32314;48.748;9.656;2023-07-16T15:13:44;1.00;1.00;1.00
46591;PMS6003;32314;48.748;9.656;2023-07-16T15:16:29;1.00;1.00;0.50
46591;PMS6003;32314;48.748;9.656;2023-07-16T15:19:15;1.00;1.00;1.00
46591;PMS6003;32314;48.748;9.656;2023-07-16T15:22:03;2.25;1.25;1.00
46591;PMS6003;32314;48.748;9.656;2023-07-16T15:24:51;2.00;2.00;1.75
46591;PMS6003;32314;48.748;9.656;2023-07-16T15:27:42;1.00;1.00;1.00
46591;PMS6003;32314;48.748;9.656;2023-07-16T15:30:28;1.00;1.00;1.00
46591;PMS6003;32314;48.748;9.656;2023-07-16T15:33:15;1.50;1.50;1.25
46591;PMS6003;32314;48.748;9.656;2023-07-16T15:36:01;0.75;0.75;0.25
46591;PMS6003;32314;48.748;9.656;2023-07-16T15:38:49;1.00;1.00;1.00
46591;PMS6003;32314;48.748;9.656;2023-07-16T15:41:41;0.75;0.75;0.75
46591;PMS6003;32314;48.748;9.656;2023-07-16T15:44:27;1.00;1.00;1.00
46591;PMS6003;32314;48.748;9.656;2023-07-16T15:47:13;1.00;1.00;1.00
46591;PMS6003;32314;48.748;9.656;2023-07-16T15:49:59;2.25;1.00;1.00
46591;PMS6003;32314;48.748;9.656;2023-07-16T15:52:45;0.25;0.25;0.00
46591;PMS6003;32314;48.748;9.656;2023-07-16T15:55:31;2.00;2.00;2.00
46591;PMS6003;32314;48.748;9.656;2023-07-16T15:58:17;1.00;1.00;1.00
46591;PMS6003;32314;48.748;9.656;2023-07-16T16:01:17;1.00;1.00;1.00
46591;PMS6003;32314;48.748;9.656;2023-07-16T16:04:04;2.00;2.00;1.00
46591;PMS6003;32314;48.748;9.656;2023-07-16T16:06:49;1.00;1.00;1.00
46591;PMS6003;32314;48.748;9.656;2023-07-16T16:09:35;3.00;2.00;1.50
46591;PMS6003;32314;48.748;9.656;2023-07-16T16:12:22;1.25;1.25;1.00
46591;PMS6003;32314;48.748;9.656;2023-07-16T16:15:11;0.00;0.00;0.00
46591;PMS6003;32314;48.748;9.656;2023-07-16T16:17:57;0.75;0.75;0.75
46591;PMS6003;32314;48.748;9.656;2023-07-16T16:20:43;1.00;1.00;1.00
46591;PMS6003;32314;48.748;9.656;2023-07-16T16:23:29;2.75;1.75;1.75
46591;PMS6003;32314;48.748;9.656;2023-07-16T16:26:15;1.50;1.50;1.00
46591;PMS6003;32314;48.748;9.656;2023-07-16T16:29:04;1.00;1.00;1.00
46591;PMS6003;32314;48.748;9.656;2023-07-16T16:31:50;1.00;1.00;1.00
46591;PMS6003;32314;48.748;9.656;2023-07-16T16:34:35;1.25;1.25;1.00
46591;PMS6003;32314;48.748;9.656;2023-07-16T16:37:22;1.00;1.00;1.00
46591;PMS6003;32314;48.748;9.656;2023-07-16T16:40:08;2.00;2.00;1.00
46591;PMS6003;32314;48.748;9.656;2023-07-16T16:42:55;2.00;1.50;1.50
46591;PMS6003;32314;48.748;9.656;2023-07-16T16:45:41;0.75;0.75;0.50
46591;PMS6003;32314;48.748;9.656;2023-07-16T16:48:27;3.00;2.25;2.00
46591;PMS6003;32314;48.748;9.656;2023-07-16T16:51:13;1.50;1.50;1.00
46591;PMS6003;32314;48.748;9.656;2023-07-16T16:53:59;1.00;1.00;0.75
46591;PMS6003;32314;48.748;9.656;2023-07-16T16:56:45;2.00;2.00;1.50
46591;PMS6003;32314;48.748;9.656;2023-07-16T16:59:31;1.00;1.00;1.00
46591;PMS6003;32314;48.748;9.656;2023-07-16T17:02:20;2.00;2.00;2.00
46591;PMS6003;32314;48.748;9.656;2023-07-16T17:05:07;2.50;2.25;2.00
46591;PMS6003;32314;48.748;9.656;2023-07-16T17:07:53;19.25;17.75;14.00
46591;PMS6003;32314;48.748;9.656;2023-07-16T17:10:40;6.00;5.00;4.00
46591;PMS6003;32314;48.748;9.656;2023-07-16T17:13:26;2.00;2.00;2.00
46591;PMS6003;32314;48.748;9.656;2023-07-16T17:16:12;0.25;0.25;0.00
46591;PMS6003;32314;48.748;9.656;2023-07-16T17:18:58;2.25;2.25;1.75
46591;PMS6003;32314;48.748;9.656;2023-07-16T17:21:44;2.00;0.33;0.33
46591;PMS6003;32314;48.748;9.656;2023-07-16T17:24:30;1.67;1.67;1.33
46591;PMS6003;32314;48.748;9.656;2023-07-16T17:27:15;2.00;2.00;2.00
46591;PMS6003;32314;48.748;9.656;2023-07-16T17:30:02;1.50;1.00;1.00
46591;PMS6003;32314;48.748;9.656;2023-07-16T17:32:49;1.25;1.00;0.50
46591;PMS6003;32314;48.748;9.656;2023-07-16T17:35:34;2.00;2.00;1.00
46591;PMS6003;32314;48.748;9.656;2023-07-16T17:38:20;2.00;1.00;1.00
46591;PMS6003;32314;48.748;9.656;2023-07-16T17:41:06;1.00;1.00;1.00
46591;PMS6003;32314;48.748;9.656;2023-07-16T17:43:52;1.67;1.67;1.00
46591;PMS6003;32314;48.748;9.656;2023-07-16T17:46:38;1.00;1.00;1.00
46591;PMS6003;32314;48.748;9.656;2023-07-16T17:49:24;2.00;2.00;1.00
46591;PMS6003;32314;48.748;9.656;2023-07-16T17:52:13;2.00;2.00;2.00
46591;PMS6003;32314;48.748;9.656;2023-07-16T17:54:59;2.00;2.00;1.67
46591;PMS6003;32314;48.748;9.656;2023-07-16T17:57:45;2.00;2.00;2.00
46591;PMS6003;32314;48.748;9.656;2023-07-16T18:00:34;4.00;3.00;2.33
46591;PMS6003;32314;48.748;9.656;2023-07-16T18:03:20;2.00;2.00;2.00
46591;PMS6003;32314;48.748;9.656;2023-07-16T18:06:07;1.00;1.00;0.33
46591;PMS6003;32314;48.748;9.656;2023-07-16T18:08:53;1.00;1.00;1.00
46591;PMS6003;32314;48.748;9.656;2023-07-16T18:11:39;2.75;2.75;2.00
46591;PMS6003;32314;48.748;9.656;2023-07-16T18:14:29;1.25;1.25;1.25
46591;PMS6003;32314;48.748;9.656;2023-07-16T18:17:15;3.50;3.50;2.50
46591;PMS6003;32314;48.748;9.656;2023-07-16T18:20:02;2.00;2.00;2.00
46591;PMS6003;32314;48.748;9.656;2023-07-16T18:22:54;2.33;2.33;2.33
46591;PMS6003;32314;48.748;9.656;2023-07-16T18:25:40;1.75;1.75;1.50
46591;PMS6003;32314;48.748;9.656;2023-07-16T18:28:28;3.25;3.25;2.25
46591;PMS6003;32314;48.748;9.656;2023-07-16T18:31:15;2.50;2.50;2.00
46591;PMS6003;32314;48.748;9.656;2023-07-16T18:34:01;3.00;3.00;2.00
46591;PMS6003;32314;48.748;9.656;2023-07-16T18:36:47;2.25;2.25;2.25
46591;PMS6003;32314;48.748;9.656;2023-07-16T18:39:33;3.75;3.50;3.00
46591;PMS6003;32314;48.748;9.656;2023-07-16T18:42:19;1.25;1.25;1.25
46591;PMS6003;32314;48.748;9.656;2023-07-16T18:45:07;2.00;2.00;2.00
46591;PMS6003;32314;48.748;9.656;2023-07-16T18:47:53;4.25;3.00;3.00
46591;PMS6003;32314;48.748;9.656;2023-07-16T18:50:39;4.00;4.00;3.25
46591;PMS6003;32314;48.748;9.656;2023-07-16T18:53:27;2.75;2.75;2.25
46591;PMS6003;32314;48.748;9.656;2023-07-16T18:56:17;3.50;3.50;3.00
46591;PMS6003;32314;48.748;9.656;2023-07-16T18:59:03;3.75;3.25;2.25
46591;PMS6003;32314;48.748;9.656;2023-07-16T19:01:49;4.50;3.00;2.00
46591;PMS6003;32314;48.748;9.656;2023-07-16T19:04:35;3.00;3.00;2.75
46591;PMS6003;32314;48.748;9.656;2023-07-16T19:07:21;3.75;3.75;3.25
46591;PMS6003;32314;48.748;9.656;2023-07-16T19:10:07;4.00;4.00;2.75
46591;PMS6003;32314;48.748;9.656;2023-07-16T19:12:54;3.00;3.00;2.50
46591;PMS6003;32314;48.748;9.656;2023-07-16T19:15:40;2.25;2.25;2.25
46591;PMS6003;32314;48.748;9.656;2023-07-16T19:18:25;3.00;3.00;3.00
46591;PMS6003;32314;48.748;9.656;2023-07-16T19:21:14;3.00;3.00;3.00
46591;PMS6003;32314;48.748;9.656;2023-07-16T19:26:42;2.75;2.75;2.50
46591;PMS6003;32314;48.748;9.656;2023-07-16T19:29:28;3.50;3.50;3.00
46591;PMS6003;32314;48.748;9.656;2023-07-16T19:32:14;3.00;3.00;3.00
46591;PMS6003;32314;48.748;9.656;2023-07-16T19:35:00;3.50;3.25;3.00
46591;PMS6003;32314;48.748;9.656;2023-07-16T19:37:47;3.00;3.00;2.50
46591;PMS6003;32314;48.748;9.656;2023-07-16T19:40:33;3.25;3.25;3.00
46591;PMS6003;32314;48.748;9.656;2023-07-16T19:43:19;3.00;3.00;3.00
46591;PMS6003;32314;48.748;9.656;2023-07-16T19:46:05;3.75;3.75;3.25
46591;PMS6003;32314;48.748;9.656;2023-07-16T19:48:51;5.75;4.00;3.00
46591;PMS6003;32314;48.748;9.656;2023-07-16T19:51:38;2.75;2.75;2.00
46591;PMS6003;32314;48.748;9.656;2023-07-16T19:54:24;5.50;4.00;4.00
46591;PMS6003;32314;48.748;9.656;2023-07-16T19:57:10;3.50;3.50;3.00
46591;PMS6003;32314;48.748;9.656;2023-07-16T19:59:56;3.00;3.00;3.00
46591;PMS6003;32314;48.748;9.656;2023-07-16T20:02:42;3.25;3.25;3.00
46591;PMS6003;32314;48.748;9.656;2023-07-16T20:05:28;4.25;3.75;3.00
46591;PMS6003;32314;48.748;9.656;2023-07-16T20:08:18;0.75;0.75;0.75
46591;PMS6003;32314;48.748;9.656;2023-07-16T20:11:03;2.00;2.00;2.00
46591;PMS6003;32314;48.748;9.656;2023-07-16T20:13:49;3.50;3.50;3.00
46591;PMS6003;32314;48.748;9.656;2023-07-16T20:16:35;4.50;4.50;4.00
46591;PMS6003;32314;48.748;9.656;2023-07-16T20:19:24;4.50;3.50;3.00
46591;PMS6003;32314;48.748;9.656;2023-07-16T20:22:10;7.00;5.00;5.00
46591;PMS6003;32314;48.748;9.656;2023-07-16T20:24:56;3.00;3.00;3.00
46591;PMS6003;32314;48.748;9.656;2023-07-16T20:27:44;3.25;3.00;2.00
46591;PMS6003;32314;48.748;9.656;2023-07-16T20:30:30;5.00;5.00;3.00
46591;PMS6003;32314;48.748;9.656;2023-07-16T20:33:16;4.75;4.25;3.75
46591;PMS6003;32314;48.748;9.656;2023-07-16T20:36:02;3.25;3.25;3.00
46591;PMS6003;32314;48.748;9.656;2023-07-16T20:38:48;4.50;4.50;3.75
46591;PMS6003;32314;48.748;9.656;2023-07-16T20:41:34;3.75;2.75;2.50
46591;PMS6003;32314;48.748;9.656;2023-07-16T20:44:21;2.00;2.00;2.00
46591;PMS6003;32314;48.748;9.656;2023-07-16T20:47:06;3.75;3.75;3.00
46591;PMS6003;32314;48.748;9.656;2023-07-16T20:49:52;4.25;4.25;3.25
46591;PMS6003;32314;48.748;9.656;2023-07-16T20:52:38;5.00;4.00;3.00
46591;PMS6003;32314;48.748;9.656;2023-07-16T20:55:25;5.00;5.00;4.00
46591;PMS6003;32314;48.748;9.656;2023-07-16T20:58:11;4.25;4.25;3.50
46591;PMS6003;32314;48.748;9.656;2023-07-16T21:00:57;3.50;3.50;3.25
46591;PMS6003;32314;48.748;9.656;2023-07-16T21:03:43;3.50;3.25;2.75
46591;PMS6003;32314;48.748;9.656;2023-07-16T21:06:29;7.00;5.25;5.00
46591;PMS6003;32314;48.748;9.656;2023-07-16T21:09:15;4.00;4.00;4.00
46591;PMS6003;32314;48.748;9.656;2023-07-16T21:12:01;3.00;3.00;3.00
46591;PMS6003;32314;48.748;9.656;2023-07-16T21:14:47;6.00;4.25;3.25
46591;PMS6003;32314;48.748;9.656;2023-07-16T21:17:32;3.50;3.50;3.00
46591;PMS6003;32314;48.748;9.656;2023-07-16T21:20:18;3.00;3.00;3.00
46591;PMS6003;32314;48.748;9.656;2023-07-16T21:23:05;4.00;4.00;3.75
46591;PMS6003;32314;48.748;9.656;2023-07-16T21:25:51;4.50;4.50;3.75
46591;PMS6003;32314;48.748;9.656;2023-07-16T21:28:37;5.25;5.25;5.00
46591;PMS6003;32314;48.748;9.656;2023-07-16T21:31:23;6.00;6.00;3.75
46591;PMS6003;32314;48.748;9.656;2023-07-16T21:34:09;2.75;2.75;2.75
46591;PMS6003;32314;48.748;9.656;2023-07-16T21:36:55;5.50;4.00;3.75
46591;PMS6003;32314;48.748;9.656;2023-07-16T21:39:42;4.25;3.50;2.75
46591;PMS6003;32314;48.748;9.656;2023-07-16T21:42:28;4.25;4.25;4.00
46591;PMS6003;32314;48.748;9.656;2023-07-16T21:45:14;3.50;3.50;2.75
46591;PMS6003;32314;48.748;9.656;2023-07-16T21:48:00;4.00;4.00;3.75
46591;PMS6003;32314;48.748;9.656;2023-07-16T21:50:46;2.25;2.25;2.00
46591;PMS6003;32314;48.748;9.656;2023-07-16T21:53:32;4.75;4.25;3.75
46591;PMS6003;32314;48.748;9.656;2023-07-16T21:56:18;4.00;4.00;3.00
46591;PMS6003;32314;48.748;9.656;2023-07-16T21:59:04;4.25;4.25;3.25
46591;PMS6003;32314;48.748;9.656;2023-07-16T22:01:50;6.00;6.00;4.50
46591;PMS6003;32314;48.748;9.656;2023-07-16T22:04:36;3.75;3.75;3.75
46591;PMS6003;32314;48.748;9.656;2023-07-16T22:07:22;4.50;4.50;4.00
46591;PMS6003;32314;48.748;9.656;2023-07-16T22:10:08;3.25;3.25;2.50
46591;PMS6003;32314;48.748;9.656;2023-07-16T22:12:54;4.75;3.75;2.75
46591;PMS6003;32314;48.748;9.656;2023-07-16T22:15:40;4.25;4.25;3.75
46591;PMS6003;32314;48.748;9.656;2023-07-16T22:18:27;4.50;3.00;2.75
46591;PMS6003;32314;48.748;9.656;2023-07-16T22:21:14;5.00;5.00;4.00
46591;PMS6003;32314;48.748;9.656;2023-07-16T22:24:00;5.25;4.00;4.00
46591;PMS6003;32314;48.748;9.656;2023-07-16T22:26:47;5.25;4.00;3.25
46591;PMS6003;32314;48.748;9.656;2023-07-16T22:29:32;3.75;3.75;2.75
46591;PMS6003;32314;48.748;9.656;2023-07-16T22:32:18;6.00;5.00;4.75
46591;PMS6003;32314;48.748;9.656;2023-07-16T22:35:04;3.00;3.00;3.00
46591;PMS6003;32314;48.748;9.656;2023-07-16T22:37:51;3.50;3.50;3.50
46591;PMS6003;32314;48.748;9.656;2023-07-16T22:40:36;6.00;6.00;4.25
46591;PMS6003;32314;48.748;9.656;2023-07-16T22:43:22;2.75;2.50;2.50
46591;PMS6003;32314;48.748;9.656;2023-07-16T22:46:08;3.75;3.75;2.75
46591;PMS6003;32314;48.748;9.656;2023-07-16T22:48:55;4.00;4.00;4.00
46591;PMS6003;32314;48.748;9.656;2023-07-16T22:51:41;5.50;5.50;4.50
46591;PMS6003;32314;48.748;9.656;2023-07-16T22:54:27;5.00;5.00;4.00
46591;PMS6003;32314;48.748;9.656;2023-07-16T22:57:13;4.00;4.00;3.25
46591;PMS6003;32314;48.748;9.656;2023-07-16T22:59:58;5.50;4.25;4.00
46591;PMS6003;32314;48.748;9.656;2023-07-16T23:02:44;6.75;5.00;4.50
46591;PMS6003;32314;48.748;9.656;2023-07-16T23:05:30;2.75;2.75;2.75
46591;PMS6003;32314;48.748;9.656;2023-07-16T23:08:16;5.50;5.25;4.00
46591;PMS6003;32314;48.748;9.656;2023-07-16T23:11:02;1.75;1.75;0.50
46591;PMS6003;32314;48.748;9.656;2023-07-16T23:13:48;3.50;3.50;3.00
46591;PMS6003;32314;48.748;9.656;2023-07-16T23:16:34;6.00;4.25;4.00
46591;PMS6003;32314;48.748;9.656;2023-07-16T23:19:20;4.00;4.00;3.50
46591;PMS6003;32314;48.748;9.656;2023-07-16T23:22:05;4.25;4.25;3.50
46591;PMS6003;32314;48.748;9.656;2023-07-16T23:24:51;5.00;5.00;3.50
46591;PMS6003;32314;48.748;9.656;2023-07-16T23:27:37;5.00;4.00;3.00
46591;PMS6003;32314;48.748;9.656;2023-07-16T23:30:23;4.75;3.00;2.75
46591;PMS6003;32314;48.748;9.656;2023-07-16T23:33:09;6.00;6.00;5.00
46591;PMS6003;32314;48.748;9.656;2023-07-16T23:35:55;8.25;7.00;6.00
46591;PMS6003;32314;48.748;9.656;2023-07-16T23:38:41;6.50;6.50;5.25
46591;PMS6003;32314;48.748;9.656;2023-07-16T23:41:26;8.75;7.50;5.75
46591;PMS6003;32314;48.748;9.656;2023-07-16T23:44:12;6.75;6.75;6.00
46591;PMS6003;32314;48.748;9.656;2023-07-16T23:46:58;7.25;7.25;6.00
46591;PMS6003;32314;48.748;9.656;2023-07-16T23:49:44;8.00;8.00;6.00
46591;PMS6003;32314;48.748;9.656;2023-07-16T23:52:30;8.50;8.50;6.00
46591;PMS6003;32314;48.748;9.656;2023-07-16T23:55:16;7.00;7.00;6.00
46591;PMS6003;32314;48.748;9.656;2023-07-16T23:58:02;8.00;7.00;5.00
